KPZQ METAR Reports


Rogers City, Presque Isle County Airport, MI, United States (KPZQ) 45-24-25N 083-48-46W
Nov 27, 2021 - 08:55 PM EST / 2021.11.28 0155 UTC
Wind: from the SW (220 degrees) at 3 MPH (3 KT):0
Visibility: 10 mile(s):0
Sky conditions: overcast
Temperature: 26.1 F (-3.3 C)
Dew Point: 23.4 F (-4.8 C)
Relative Humidity: 89%
Pressure (altimeter): 29.87 in. Hg (1011 hPa)
ob: KPZQ 280155Z AUTO 22003KT 10SM OVC080 M03/M05 A2987 RMK AO2 T10331048
cycle: 2

 

Rogers City METAR Meteogram

Weather Chart

Nearby METAR Reports

KPZQ - Rogers City, Michigan, USA
Distance from station: SSW 1mi, 2km
Updated: Sat, 27-Nov-2021 8:55pm EST
Overcast
Overcast
 Wind from SW
Wind: SW 3 mph , 6 km/h
Temperature: 27°F , -3°C
Dew Point: 23°F , -5°C
Humidity: 86%
Barometer: 29.87 inHg , 1011.5 hPa
Clouds: Overcast
Visibility: 10 miles , 16 km
Cloud details: Overcast 8000 ft
2021/11/28 01:55 KPZQ 280155Z AUTO 22003KT 10SM OVC080 M03/M05 A2987 RMK AO2 T10331048
KAPN - Alpena, Michigan, USA
Distance from station: SSE 27mi, 43km
Updated: Sat, 27-Nov-2021 8:54pm EST
Light snow, Mist, Overcast
Light snow, Mist, Overcast
 Wind from calm
Wind: Calm
Temperature: 27°F , -3°C
Dew Point: 25°F , -4°C
Humidity: 93%
Barometer: 29.87 inHg , 1011.5 hPa
Summary: Light snow, Mist
Clouds: Overcast
Visibility: 4 miles , 6 km
Cloud details: Mostly cloudy 4400 ft
Overcast 6000 ft
2021/11/28 01:54 KAPN 280154Z AUTO 00000KT 4SM -SN BR BKN044 OVC060 M03/M04 A2987 RMK AO2 SLP125 P0001 T10331039 VISNO RY 19 $
 
KSLH - Cheboygan, Michigan, USA
Distance from station: WNW 38mi, 61km
Updated: Sat, 27-Nov-2021 8:55pm EST
Light snow, Overcast
Light snow, Overcast
 Wind from calm
Wind: Calm
Temperature: 27°F , -3°C
Dew Point: 25°F , -4°C
Humidity: 93%
Barometer: 29.85 inHg , 1010.8 hPa
Summary: Light Snow
Clouds: Overcast
Visibility: 4 miles , 6 km
Cloud details: Mostly cloudy 2100 ft
Overcast 3200 ft
2021/11/28 01:55 KSLH 280155Z AUTO 00000KT 4SM -SN BKN021 OVC032 M03/M04 A2985 RMK AO2
KDRM - Drummond Is, Michigan, USA
Distance from station: N 40mi, 65km
Updated: Sat, 27-Nov-2021 8:55pm EST
Overcast
Overcast
 Wind from calm
Wind: Calm
Temperature: 25°F , -4°C
Dew Point: 21°F , -6°C
Humidity: 86%
Barometer: 29.87 inHg , 1011.5 hPa
Clouds: Overcast
Visibility: 10 miles , 16 km
Cloud details: Overcast 8500 ft
2021/11/28 01:55 KDRM 280155Z AUTO 00000KT 10SM OVC085 M04/M06 A2987 RMK AO2 T10371057
 
KPLN - Pellston, Michigan, USA
Distance from station: WNW 49mi, 79km
Updated: Sat, 27-Nov-2021 8:57pm EST
Light snow, Mist, Overcast
Light snow, Mist, Overcast
 Wind from calm
Wind: Calm
Temperature: 27°F , -3°C
Dew Point: 27°F , -3°C
Humidity: 100%
Barometer: 29.86 inHg , 1011.2 hPa
Summary: Light snow, Mist
Clouds: Overcast
Visibility: 2 miles , 3 km
Cloud details: Few Clouds 700 ft
Few Clouds 1300 ft
Overcast 3000 ft
2021/11/28 01:57 KPLN 280157Z AUTO 00000KT 2SM -SN BR FEW007 FEW013 OVC030 M03/M03 A2986 RMK AO2 P0000 T10281033
KMCD - Mackinac Island, Michigan, USA
Distance from station: NW 50mi, 80km
Updated: Sat, 27-Nov-2021 8:55pm EST
Overcast
Overcast
 Wind from S
Wind: S 6 mph , 9 km/h
Temperature: 30°F , -1°C
Wind Chill: 24°F , -4°C
Dew Point: 23°F , -5°C
Humidity: 75%
Barometer: 29.85 inHg , 1010.8 hPa
Clouds: Overcast
Visibility: 10 miles , 16 km
Cloud details: Partly cloudy 2000 ft
Mostly cloudy 4600 ft
Overcast 8500 ft
2021/11/28 01:55 KMCD 280155Z AUTO 17005KT 10SM SCT020 BKN046 OVC085 M01/M05 A2985 RMK AO2 T10151051